createdAt,value
2023-04-14T00:01:50.363Z,6.56
2023-04-14T00:04:17.500Z,6.62
2023-04-14T00:06:44.699Z,6.69
2023-04-14T00:09:11.520Z,6.77
2023-04-14T00:11:38.530Z,6.83
2023-04-14T00:14:05.910Z,6.83
2023-04-14T00:16:33.204Z,6.88
2023-04-14T00:19:00.333Z,6.79
2023-04-14T00:21:27.503Z,6.73
2023-04-14T00:23:56.568Z,6.58
2023-04-14T00:26:23.592Z,6.49
2023-04-14T00:28:50.534Z,6.47
2023-04-14T00:31:17.579Z,6.39
2023-04-14T00:33:44.557Z,6.42
2023-04-14T00:36:11.719Z,6.44
2023-04-14T00:38:38.730Z,6.25
2023-04-14T00:41:05.540Z,6.17
2023-04-14T00:43:32.372Z,6.20
2023-04-14T00:45:59.641Z,6.21
2023-04-14T00:48:37.105Z,6.10
2023-04-14T00:51:04.665Z,6.10
2023-04-14T00:53:32.785Z,6.04
2023-04-14T00:56:01.090Z,6.02
2023-04-14T00:58:28.310Z,6.00
2023-04-14T01:00:58.174Z,6.02
2023-04-14T01:03:26.364Z,6.05
2023-04-14T01:05:53.719Z,5.99
2023-04-14T01:08:21.920Z,5.99
2023-04-14T01:11:17.000Z,6.04
2023-04-14T01:13:55.992Z,6.09
2023-04-14T01:16:38.321Z,6.02
2023-04-14T01:19:24.747Z,5.95
2023-04-14T01:22:05.737Z,5.84
2023-04-14T01:25:24.108Z,5.82
2023-04-14T01:28:34.722Z,5.96
2023-04-14T01:31:31.254Z,5.99
2023-04-14T01:34:09.695Z,5.95
2023-04-14T01:36:52.288Z,5.95
2023-04-14T01:39:25.167Z,6.02
2023-04-14T01:41:56.230Z,6.00
2023-04-14T01:44:25.840Z,6.00
2023-04-14T01:47:02.252Z,6.04
2023-04-14T01:49:33.195Z,5.95
2023-04-14T01:52:04.092Z,5.98
2023-04-14T01:54:34.576Z,6.00
2023-04-14T01:57:05.342Z,5.92
2023-04-14T01:59:36.563Z,5.84
2023-04-14T02:02:07.776Z,5.76
2023-04-14T02:04:37.522Z,5.79
2023-04-14T02:07:07.648Z,5.89
2023-04-14T02:09:36.477Z,5.95
2023-04-14T02:12:06.692Z,5.83
2023-04-14T02:14:36.099Z,5.76
2023-04-14T02:17:04.392Z,5.69
2023-04-14T02:19:32.459Z,5.69
2023-04-14T02:22:00.934Z,5.62
2023-04-14T02:24:27.838Z,5.54
2023-04-14T02:27:03.521Z,5.50
2023-04-14T02:29:35.263Z,5.39
2023-04-14T02:32:07.163Z,5.41
2023-04-14T02:34:42.546Z,5.48
2023-04-14T02:37:18.315Z,5.25
2023-04-14T02:39:53.407Z,5.21
2023-04-14T02:42:26.920Z,5.24
2023-04-14T02:45:05.238Z,5.17
2023-04-14T02:47:45.386Z,5.05
2023-04-14T02:50:18.143Z,4.93
2023-04-14T02:52:51.326Z,4.81
2023-04-14T02:55:21.656Z,4.71
2023-04-14T02:57:50.438Z,4.67
2023-04-14T03:00:18.370Z,4.83
2023-04-14T03:02:47.482Z,4.87
2023-04-14T03:05:15.139Z,4.91
2023-04-14T03:07:44.563Z,5.03
2023-04-14T03:10:12.811Z,5.10
2023-04-14T03:12:42.149Z,4.98
2023-04-14T03:15:10.808Z,4.71
2023-04-14T03:17:38.810Z,4.74
2023-04-14T03:20:07.261Z,4.94
2023-04-14T03:22:40.650Z,4.98
2023-04-14T03:25:09.104Z,4.88
2023-04-14T03:27:37.943Z,4.71
2023-04-14T03:30:10.003Z,4.65
2023-04-14T03:32:42.385Z,4.59
2023-04-14T03:35:12.500Z,4.44
2023-04-14T03:37:46.199Z,4.31
2023-04-14T03:40:15.478Z,4.18
2023-04-14T03:42:45.942Z,4.34
2023-04-14T03:45:12.848Z,4.34
2023-04-14T03:47:39.997Z,4.42
2023-04-14T03:50:11.357Z,4.49
2023-04-14T03:52:41.374Z,4.39
2023-04-14T03:55:12.560Z,4.35
2023-04-14T03:57:42.002Z,4.35
2023-04-14T04:00:11.086Z,4.33
2023-04-14T04:02:40.221Z,4.23
2023-04-14T04:05:10.040Z,4.24
2023-04-14T04:07:39.625Z,4.16
2023-04-14T04:10:08.168Z,4.18
2023-04-14T04:12:38.748Z,4.23
2023-04-14T04:15:06.929Z,4.28
2023-04-14T04:17:35.854Z,4.26
2023-04-14T04:20:09.932Z,4.18
2023-04-14T04:22:41.294Z,4.12
2023-04-14T04:25:11.598Z,4.13
2023-04-14T04:27:38.424Z,4.16
2023-04-14T04:30:09.468Z,4.26
2023-04-14T04:32:39.851Z,4.30
2023-04-14T04:35:08.821Z,4.20
2023-04-14T04:37:37.677Z,4.21
2023-04-14T04:40:05.048Z,4.24
2023-04-14T04:42:32.082Z,4.29
2023-04-14T04:44:58.875Z,4.21
2023-04-14T04:47:25.933Z,4.17
2023-04-14T04:49:52.717Z,4.19
2023-04-14T04:52:19.436Z,4.21
2023-04-14T04:54:52.046Z,4.20
2023-04-14T04:57:19.763Z,4.16
2023-04-14T04:59:47.585Z,4.29
2023-04-14T05:02:14.341Z,4.30
2023-04-14T05:04:41.163Z,4.16
2023-04-14T05:07:08.804Z,4.07
2023-04-14T05:09:35.588Z,4.04
2023-04-14T05:12:02.417Z,4.20
2023-04-14T05:14:29.206Z,4.21
2023-04-14T05:16:57.081Z,4.03
2023-04-14T05:19:23.923Z,4.23
2023-04-14T05:21:51.048Z,4.41
2023-04-14T05:24:17.828Z,4.49
2023-04-14T05:27:01.830Z,4.52
2023-04-14T05:29:32.501Z,4.55
2023-04-14T05:31:59.388Z,4.51
2023-04-14T05:34:26.135Z,4.33
2023-04-14T05:36:53.004Z,4.20
2023-04-14T05:39:19.942Z,4.19
2023-04-14T05:41:46.739Z,4.29
2023-04-14T05:44:13.532Z,4.27
2023-04-14T05:46:41.222Z,4.30
2023-04-14T05:49:08.256Z,4.35
2023-04-14T05:51:36.116Z,4.44
2023-04-14T05:54:03.114Z,4.52
2023-04-14T05:56:30.132Z,4.57
2023-04-14T05:58:56.903Z,4.68
2023-04-14T06:01:23.670Z,4.67
2023-04-14T06:03:50.690Z,4.61
2023-04-14T06:06:19.687Z,4.56
2023-04-14T06:08:46.493Z,4.68
2023-04-14T06:11:14.223Z,4.78
2023-04-14T06:13:41.235Z,4.90
2023-04-14T06:16:11.076Z,5.02
2023-04-14T06:18:37.860Z,5.18
2023-04-14T06:21:04.764Z,5.32
2023-04-14T06:23:32.286Z,5.42
2023-04-14T06:25:59.277Z,5.57
2023-04-14T06:28:28.510Z,5.69
2023-04-14T06:30:55.396Z,5.84
2023-04-14T06:33:22.224Z,6.04
2023-04-14T06:35:48.957Z,6.25
2023-04-14T06:38:17.084Z,6.44
2023-04-14T06:40:44.396Z,6.63
2023-04-14T06:43:11.464Z,6.83
2023-04-14T06:45:38.382Z,7.03
2023-04-14T06:48:06.202Z,7.17
2023-04-14T06:50:32.964Z,7.30
2023-04-14T06:52:59.752Z,7.42
2023-04-14T06:55:26.675Z,7.50
2023-04-14T06:57:53.513Z,7.59
2023-04-14T07:00:20.747Z,7.66
2023-04-14T07:02:47.637Z,7.75
2023-04-14T07:05:14.965Z,7.83
2023-04-14T07:07:41.921Z,7.90
2023-04-14T07:10:09.618Z,7.98
2023-04-14T07:12:36.437Z,8.03
2023-04-14T07:15:03.672Z,8.06
2023-04-14T07:17:30.500Z,8.14
2023-04-14T07:19:58.125Z,8.21
2023-04-14T07:22:24.898Z,8.29
2023-04-14T07:24:51.847Z,8.38
2023-04-14T07:27:18.590Z,8.48
2023-04-14T07:29:45.414Z,8.58
2023-04-14T07:32:13.480Z,8.68
2023-04-14T07:34:43.848Z,8.78
2023-04-14T07:37:11.133Z,8.85
2023-04-14T07:39:38.335Z,9.00
2023-04-14T07:42:05.466Z,9.16
2023-04-14T07:44:33.193Z,9.30
2023-04-14T07:47:00.141Z,9.44
2023-04-14T07:49:26.944Z,9.64
2023-04-14T07:51:53.783Z,9.85
2023-04-14T07:54:20.614Z,10.01
2023-04-14T07:56:48.641Z,10.08
2023-04-14T07:59:16.084Z,10.27
2023-04-14T08:01:42.939Z,10.38
2023-04-14T08:04:09.900Z,10.59
2023-04-14T08:06:37.203Z,10.78
2023-04-14T08:09:04.110Z,11.02
2023-04-14T08:11:33.704Z,11.17
2023-04-14T08:14:00.813Z,11.29
2023-04-14T08:16:27.750Z,11.37
2023-04-14T08:18:55.798Z,11.49
2023-04-14T08:21:24.866Z,11.64
2023-04-14T08:23:52.471Z,11.72
2023-04-14T08:26:19.296Z,11.92
2023-04-14T08:28:46.950Z,12.17
2023-04-14T08:31:13.690Z,12.25
2023-04-14T08:33:40.474Z,12.22
2023-04-14T08:36:07.521Z,12.40
2023-04-14T08:38:34.261Z,12.47
2023-04-14T08:41:04.182Z,12.62
2023-04-14T08:43:30.989Z,12.79
2023-04-14T08:46:00.579Z,12.97
2023-04-14T08:48:31.077Z,13.10
2023-04-14T08:51:32.214Z,12.99
2023-04-14T08:54:01.453Z,13.38
2023-04-14T08:56:34.393Z,13.61
2023-04-14T08:59:02.000Z,13.64
2023-04-14T09:01:30.369Z,13.76
2023-04-14T09:03:57.919Z,13.82
2023-04-14T09:06:25.674Z,13.89
2023-04-14T09:08:53.174Z,14.07
2023-04-14T09:11:20.081Z,14.14
2023-04-14T09:13:50.191Z,14.35
2023-04-14T09:16:18.756Z,14.42
2023-04-14T09:18:47.292Z,14.38
2023-04-14T09:21:50.435Z,14.49
2023-04-14T09:24:05.456Z,14.49
2023-04-14T09:26:32.279Z,14.44
2023-04-14T09:29:00.473Z,14.49
2023-04-14T09:31:28.528Z,14.77
2023-04-14T09:33:55.549Z,14.80
2023-04-14T09:36:24.752Z,14.68
2023-04-14T09:38:52.659Z,14.87
2023-04-14T09:41:22.955Z,14.80
2023-04-14T09:43:50.843Z,15.05
2023-04-14T09:46:18.050Z,15.38
2023-04-14T09:48:56.657Z,15.53
2023-04-14T09:51:29.456Z,15.69
2023-04-14T09:54:06.421Z,15.84
2023-04-14T09:56:33.651Z,15.84
2023-04-14T09:59:02.456Z,15.75
2023-04-14T10:01:34.417Z,15.65
2023-04-14T10:04:03.027Z,15.98
2023-04-14T10:06:32.090Z,15.89
2023-04-14T10:08:59.712Z,16.33
2023-04-14T10:11:37.992Z,15.95
2023-04-14T10:14:06.691Z,15.89
2023-04-14T10:16:34.557Z,16.22
2023-04-14T10:19:02.756Z,16.61
2023-04-14T10:21:30.212Z,16.80
2023-04-14T10:23:57.772Z,16.86
2023-04-14T10:26:26.380Z,16.99
2023-04-14T10:28:56.155Z,16.87
2023-04-14T10:31:37.661Z,16.81
2023-04-14T10:34:13.658Z,17.03
2023-04-14T10:36:41.395Z,17.16
2023-04-14T10:39:10.888Z,17.23
2023-04-14T10:41:55.661Z,17.53
2023-04-14T10:44:41.492Z,17.82
2023-04-14T10:47:08.879Z,17.83
2023-04-14T10:49:41.374Z,17.84
2023-04-14T10:52:14.511Z,18.02
2023-04-14T10:54:57.205Z,18.24
2023-04-14T10:57:26.713Z,17.92
2023-04-14T11:00:00.567Z,17.83
2023-04-14T11:02:33.259Z,18.04
2023-04-14T11:05:06.462Z,18.21
2023-04-14T11:07:44.614Z,18.40
2023-04-14T11:10:17.891Z,18.80
2023-04-14T11:12:46.411Z,19.09
2023-04-14T11:15:14.488Z,18.91
2023-04-14T11:17:43.211Z,19.00
2023-04-14T11:20:22.383Z,19.12
2023-04-14T11:22:52.527Z,19.04
2023-04-14T11:25:23.925Z,19.60
2023-04-14T11:27:52.259Z,19.95
2023-04-14T11:30:21.647Z,20.33
2023-04-14T11:32:51.541Z,21.01
2023-04-14T11:35:20.683Z,21.28
2023-04-14T11:37:47.835Z,20.95
2023-04-14T11:40:17.031Z,21.19
2023-04-14T11:42:52.400Z,19.66
2023-04-14T11:45:19.448Z,19.09
2023-04-14T11:48:06.168Z,19.97
2023-04-14T11:50:47.435Z,20.71
2023-04-14T11:53:19.010Z,21.39
2023-04-14T11:55:49.254Z,21.60
2023-04-14T11:58:26.790Z,20.38
2023-04-14T12:00:56.292Z,20.67
2023-04-14T12:03:32.399Z,19.63
2023-04-14T12:06:01.698Z,20.90
2023-04-14T12:08:34.063Z,21.96
2023-04-14T12:11:14.985Z,22.60
2023-04-14T12:13:47.038Z,22.49
2023-04-14T12:16:16.945Z,22.35
2023-04-14T12:18:44.674Z,22.21
2023-04-14T12:21:18.839Z,22.04
2023-04-14T12:23:50.647Z,22.19
2023-04-14T12:26:19.494Z,22.90
2023-04-14T12:28:55.856Z,22.97
2023-04-14T12:31:29.635Z,23.42
2023-04-14T12:34:01.857Z,23.86
2023-04-14T12:36:45.477Z,24.12
2023-04-14T12:39:16.384Z,23.86
2023-04-14T12:41:43.445Z,23.71
2023-04-14T12:44:21.384Z,23.66
2023-04-14T12:46:53.722Z,23.84
2023-04-14T12:49:33.799Z,24.06
2023-04-14T12:52:01.211Z,24.16
2023-04-14T12:54:47.498Z,23.85
2023-04-14T12:57:14.533Z,24.20
2023-04-14T12:59:41.301Z,24.52
2023-04-14T13:02:09.089Z,24.66
2023-04-14T13:04:35.982Z,24.30
2023-04-14T13:07:03.509Z,24.31
2023-04-14T13:09:31.721Z,24.00
2023-04-14T13:11:58.550Z,23.84
2023-04-14T13:14:25.332Z,23.84
2023-04-14T13:16:53.980Z,24.24
2023-04-14T13:19:23.109Z,24.42
2023-04-14T13:21:50.870Z,24.56
2023-04-14T13:24:17.775Z,24.55
2023-04-14T13:26:46.081Z,24.45
2023-04-14T13:29:15.821Z,24.72
2023-04-14T13:31:42.641Z,24.59
2023-04-14T13:34:11.184Z,24.53
2023-04-14T13:36:38.114Z,24.65
2023-04-14T13:39:05.044Z,24.82
2023-04-14T13:41:32.639Z,24.42
2023-04-14T13:43:59.514Z,24.35
2023-04-14T13:46:26.318Z,24.28
2023-04-14T13:48:53.876Z,24.08
2023-04-14T13:51:23.409Z,23.89
2023-04-14T13:53:50.450Z,23.69
2023-04-14T13:56:22.652Z,23.75
2023-04-14T13:58:49.600Z,23.52
2023-04-14T14:01:16.561Z,22.90
2023-04-14T14:03:43.981Z,22.43
2023-04-14T14:06:11.068Z,21.36
2023-04-14T14:08:38.027Z,20.65
2023-04-14T14:11:06.379Z,21.09
2023-04-14T14:13:36.004Z,21.74
2023-04-14T14:16:04.174Z,22.13
2023-04-14T14:18:30.991Z,22.24
2023-04-14T14:20:57.804Z,21.94
2023-04-14T14:23:26.195Z,21.61
2023-04-14T14:25:54.515Z,20.93
2023-04-14T14:28:22.737Z,21.20
2023-04-14T14:30:50.060Z,21.71
2023-04-14T14:33:17.253Z,21.89
2023-04-14T14:35:44.529Z,21.80
2023-04-14T14:38:11.651Z,21.71
2023-04-14T14:40:39.132Z,21.50
2023-04-14T14:43:06.421Z,21.47
2023-04-14T14:45:33.872Z,21.12
2023-04-14T14:48:01.509Z,21.16
2023-04-14T14:50:28.433Z,20.69
2023-04-14T14:52:56.794Z,20.69
2023-04-14T14:55:23.786Z,21.03
2023-04-14T14:57:51.193Z,21.06
2023-04-14T15:00:18.856Z,20.75
2023-04-14T15:02:45.943Z,20.59
2023-04-14T15:05:14.322Z,19.81
2023-04-14T15:07:41.122Z,19.33
2023-04-14T15:10:09.202Z,18.77
2023-04-14T15:12:36.086Z,18.42
2023-04-14T15:15:03.213Z,18.07
2023-04-14T15:17:31.336Z,17.62
2023-04-14T15:20:03.395Z,17.54
2023-04-14T15:22:31.424Z,17.43
2023-04-14T15:24:58.680Z,17.31
2023-04-14T15:27:25.552Z,17.15
2023-04-14T15:29:52.382Z,17.04
2023-04-14T15:32:24.995Z,17.02
2023-04-14T15:34:52.992Z,16.92
2023-04-14T15:37:20.023Z,16.57
2023-04-14T15:39:46.914Z,16.35
2023-04-14T15:42:13.885Z,16.36
2023-04-14T15:44:40.778Z,16.44
2023-04-14T15:47:07.643Z,16.42
2023-04-14T15:49:34.484Z,16.43
2023-04-14T15:52:02.660Z,16.38
2023-04-14T15:54:29.450Z,16.31
2023-04-14T15:56:56.195Z,16.35
2023-04-14T15:59:24.809Z,16.31
2023-04-14T16:01:53.456Z,16.30
2023-04-14T16:04:20.513Z,16.13
2023-04-14T16:06:47.866Z,16.28
2023-04-14T16:09:15.175Z,16.23
2023-04-14T16:11:42.021Z,16.15
2023-04-14T16:14:09.029Z,16.12
2023-04-14T16:16:36.311Z,16.16
2023-04-14T16:19:03.480Z,16.06
2023-04-14T16:21:30.517Z,16.01
2023-04-14T16:23:57.419Z,15.86
2023-04-14T16:26:25.103Z,15.71
2023-04-14T16:28:52.555Z,15.63
2023-04-14T16:31:19.381Z,15.59
2023-04-14T16:33:46.800Z,15.55
2023-04-14T16:36:13.575Z,15.51
2023-04-14T16:38:40.791Z,15.44
2023-04-14T16:41:07.642Z,15.48
2023-04-14T16:43:34.419Z,15.59
2023-04-14T16:46:05.743Z,15.51
2023-04-14T16:48:33.163Z,15.50
2023-04-14T16:51:10.865Z,15.37
2023-04-14T16:53:39.083Z,15.34
2023-04-14T16:56:11.198Z,15.29
2023-04-14T16:58:38.798Z,15.32
2023-04-14T17:01:07.126Z,15.29
2023-04-14T17:03:34.806Z,15.26
2023-04-14T17:06:01.925Z,15.09
2023-04-14T17:08:28.957Z,15.03
2023-04-14T17:10:56.653Z,14.98
2023-04-14T17:13:23.502Z,14.90
2023-04-14T17:15:58.822Z,14.88
2023-04-14T17:18:35.063Z,14.81
2023-04-14T17:21:02.023Z,14.76
2023-04-14T17:23:29.091Z,14.76
2023-04-14T17:25:58.690Z,14.77
2023-04-14T17:28:27.141Z,14.71
2023-04-14T17:30:54.120Z,14.66
2023-04-14T17:33:22.093Z,14.60
2023-04-14T17:35:48.997Z,14.56
2023-04-14T17:38:16.628Z,14.51
2023-04-14T17:40:43.411Z,14.50
2023-04-14T17:43:10.136Z,14.50
2023-04-14T17:45:43.713Z,14.47
2023-04-14T17:48:11.017Z,14.40
2023-04-14T17:50:37.910Z,14.32
2023-04-14T17:53:05.017Z,14.22
2023-04-14T17:55:32.484Z,14.25
2023-04-14T17:58:00.200Z,14.23
2023-04-14T18:00:29.194Z,14.26
2023-04-14T18:02:57.527Z,14.13
2023-04-14T18:05:24.358Z,14.04
2023-04-14T18:07:51.402Z,13.95
2023-04-14T18:10:18.262Z,13.88
2023-04-14T18:12:45.072Z,13.76
2023-04-14T18:15:15.760Z,13.75
2023-04-14T18:17:43.563Z,13.54
2023-04-14T18:20:11.510Z,13.34
2023-04-14T18:22:39.146Z,13.14
2023-04-14T18:25:06.820Z,12.95
2023-04-14T18:30:03.789Z,12.71
2023-04-14T18:32:31.417Z,12.57
2023-04-14T18:34:58.448Z,12.39
2023-04-14T18:37:26.222Z,12.19
2023-04-14T18:39:53.075Z,11.94
2023-04-14T18:42:20.187Z,11.77
2023-04-14T18:44:47.520Z,11.64
2023-04-14T18:47:15.784Z,11.43
2023-04-14T18:49:42.596Z,11.39
2023-04-14T18:52:09.472Z,11.35
2023-04-14T18:54:36.203Z,11.30
2023-04-14T18:57:03.211Z,11.17
2023-04-14T18:59:29.942Z,11.13
2023-04-14T19:01:58.293Z,11.11
2023-04-14T19:04:25.779Z,11.08
2023-04-14T19:06:55.242Z,11.03
2023-04-14T19:09:23.244Z,10.83
2023-04-14T19:11:50.359Z,10.65
2023-04-14T19:14:18.401Z,10.59
2023-04-14T19:16:45.351Z,10.60
2023-04-14T19:19:12.412Z,10.60
2023-04-14T19:21:39.311Z,10.44
2023-04-14T19:24:06.195Z,10.45
2023-04-14T19:26:34.437Z,10.55
2023-04-14T19:29:02.594Z,10.61
2023-04-14T19:31:29.601Z,10.43
2023-04-14T19:33:58.521Z,10.42
2023-04-14T19:36:25.441Z,10.35
2023-04-14T19:38:52.707Z,10.22
2023-04-14T19:41:19.665Z,10.23
2023-04-14T19:43:46.863Z,10.14
2023-04-14T19:46:13.834Z,10.15
2023-04-14T19:48:41.242Z,9.87
2023-04-14T19:51:09.025Z,9.87
2023-04-14T19:53:36.452Z,9.85
2023-04-14T19:56:05.463Z,9.79
2023-04-14T19:58:32.754Z,9.77
2023-04-14T20:01:01.000Z,9.65
2023-04-14T20:03:28.250Z,9.50
2023-04-14T20:05:57.728Z,9.55
2023-04-14T20:08:27.190Z,9.50
2023-04-14T20:10:54.825Z,9.43
2023-04-14T20:13:24.341Z,9.22
2023-04-14T20:15:54.312Z,9.23
2023-04-14T20:18:22.898Z,9.29
2023-04-14T20:20:50.034Z,9.22
2023-04-14T20:23:16.954Z,9.13
2023-04-14T20:25:45.488Z,9.08
2023-04-14T20:28:12.395Z,9.06
2023-04-14T20:30:39.504Z,9.07
2023-04-14T20:33:06.255Z,8.91
2023-04-14T20:35:39.254Z,8.96
2023-04-14T20:38:07.483Z,8.87
2023-04-14T20:40:34.994Z,8.82
2023-04-14T20:43:01.816Z,8.77
2023-04-14T20:45:28.766Z,8.63
2023-04-14T20:47:55.681Z,8.66
2023-04-14T20:50:22.665Z,8.52
2023-04-14T20:52:51.079Z,8.59
2023-04-14T20:55:19.455Z,8.77
2023-04-14T20:57:47.885Z,8.81
2023-04-14T21:00:16.801Z,8.70
2023-04-14T21:02:45.259Z,8.61
2023-04-14T21:05:12.645Z,8.55
2023-04-14T21:07:43.696Z,8.41
2023-04-14T21:10:12.590Z,8.33
2023-04-14T21:12:54.218Z,8.18
2023-04-14T21:15:49.990Z,8.17
2023-04-14T21:18:14.008Z,8.03
2023-04-14T21:20:41.132Z,8.01
2023-04-14T21:23:07.906Z,7.95
2023-04-14T21:25:35.492Z,7.88
2023-04-14T21:28:02.305Z,7.95
2023-04-14T21:30:29.112Z,8.00
2023-04-14T21:32:56.011Z,7.71
2023-04-14T21:35:22.833Z,7.51
2023-04-14T21:37:49.641Z,7.46
2023-04-14T21:40:16.427Z,7.72
2023-04-14T21:42:43.341Z,7.96
2023-04-14T21:45:10.693Z,7.94
2023-04-14T21:47:38.052Z,7.96
2023-04-14T21:50:07.206Z,7.78
2023-04-14T21:52:34.079Z,7.75
2023-04-14T21:55:01.277Z,7.68
2023-04-14T21:57:44.545Z,7.69
2023-04-14T22:00:17.387Z,7.73
2023-04-14T22:02:45.357Z,7.83
2023-04-14T22:05:13.618Z,7.79
2023-04-14T22:07:41.116Z,7.71
2023-04-14T22:10:08.472Z,7.47
2023-04-14T22:12:39.667Z,7.44
2023-04-14T22:15:08.982Z,7.35
2023-04-14T22:17:41.220Z,7.23
2023-04-14T22:20:09.596Z,7.00
2023-04-14T22:22:36.724Z,6.99
2023-04-14T22:25:04.467Z,7.12
2023-04-14T22:27:33.810Z,7.21
2023-04-14T22:30:01.915Z,7.25
2023-04-14T22:32:29.119Z,7.33
2023-04-14T22:34:55.876Z,7.37
2023-04-14T22:37:22.779Z,7.30
2023-04-14T22:39:49.520Z,7.11
2023-04-14T22:42:16.503Z,7.06
2023-04-14T22:44:43.389Z,7.10
2023-04-14T22:47:10.252Z,7.11
2023-04-14T22:49:37.035Z,7.04
2023-04-14T22:52:04.906Z,7.05
2023-04-14T22:54:31.798Z,7.09
2023-04-14T22:56:58.770Z,7.03
2023-04-14T22:59:26.789Z,6.88
2023-04-14T23:01:53.791Z,6.92
2023-04-14T23:04:20.882Z,6.97
2023-04-14T23:06:47.731Z,6.93
2023-04-14T23:09:15.217Z,6.87
2023-04-14T23:11:42.523Z,6.87
2023-04-14T23:14:09.371Z,6.82
2023-04-14T23:16:36.532Z,6.55
2023-04-14T23:19:03.608Z,6.55
2023-04-14T23:21:30.627Z,6.43
2023-04-14T23:23:57.454Z,6.27
2023-04-14T23:26:25.570Z,6.29
2023-04-14T23:28:53.674Z,6.36
2023-04-14T23:31:20.991Z,6.39
2023-04-14T23:33:50.843Z,6.40
2023-04-14T23:36:18.604Z,6.51
2023-04-14T23:38:45.623Z,6.59
2023-04-14T23:41:12.445Z,6.62
2023-04-14T23:43:39.538Z,6.51
2023-04-14T23:46:06.381Z,6.52
2023-04-14T23:48:33.210Z,6.48
2023-04-14T23:51:06.207Z,6.50
2023-04-14T23:53:45.928Z,6.46
2023-04-14T23:56:12.960Z,6.40
2023-04-14T23:58:39.762Z,6.21
